Sarah D. — WDC5757 — position and weather

sailwx.info

Track history (hours):
 
Tides and Currents Weather Stations Pressure Air Temp Water Temp Dewpoint Dewpoint Depression Visibility Wind Speed Wind Dir Waves Ship Positions

Sarah D.

Owner: C & J MARINE SERVICES, INC., BERWICK, LA. More information available from US FCC via Universal Licensing System and Coast Guard Vessel Documentation Center.

Last reported at 2017-Oct-14 16:11 UTC. Time now 2017-Oct-19 08:54 UTC.
Position N 29°50' W 091°60'.

; draft 3 m.

Type: . MMSI: 367045970.

Date/timePositionNaut miles runAvg speedWind from/ knotsBaromVisibWave heightAir tempDewpointWater temp
2017-Oct-14 16:11N 29°50' W 091°60'1 4.4
2017-Oct-14 15:59N 29°50' W 092°01'2 4.3
2017-Oct-14 15:31N 29°49' W 092°03'2 4.2
2017-Oct-14 15:01N 29°48' W 092°05'2 4.2
2017-Oct-14 14:31N 29°47' W 092°07'2 3.6
2017-Oct-14 14:01N 29°47' W 092°09'2 3.9
2017-Oct-14 13:31N 29°47' W 092°11'2 4.4
2017-Oct-14 13:01N 29°48' W 092°14'2 4.6
2017-Oct-14 12:31N 29°49' W 092°16'2 4.0
2017-Oct-14 12:01N 29°50' W 092°18'19 3.7
2017-Oct-14 06:48N 29°56' W 092°39'1 1.9
2017-Oct-14 06:29N 29°56' W 092°40'19 2.5
2017-Oct-13 22:50N 29°56' W 093°02'1 4.1
2017-Oct-13 22:29N 29°56' W 093°03'2 4.0
2017-Oct-13 22:01N 29°56' W 093°06'2 3.3
2017-Oct-13 21:31N 29°56' W 093°07'2 3.9
2017-Oct-13 21:01N 29°56' W 093°10'2 4.0
2017-Oct-13 20:30N 29°58' W 093°11'2 4.0
2017-Oct-13 20:01N 29°59' W 093°13'2 3.8
2017-Oct-13 19:31N 30°01' W 093°14'2 3.5
2017-Oct-13 19:01N 30°02' W 093°15'2 3.8
2017-Oct-13 18:31N 30°04' W 093°16'2 3.6
2017-Oct-13 18:01N 30°05' W 093°17'0 0.5
2017-Oct-13 17:31N 30°05' W 093°18'1 1.7
2017-Oct-13 17:01N 30°06' W 093°18'1 2.6
2017-Oct-13 16:30N 30°05' W 093°20'1 2.6
2017-Oct-13 16:00N 30°04' W 093°21'1 2.6
2017-Oct-13 15:31N 30°04' W 093°22'0 0.8
2017-Oct-13 15:00N 30°04' W 093°21'0 0.7
2017-Oct-13 14:31N 30°04' W 093°22'0 0.1
2017-Oct-13 14:01N 30°04' W 093°22'0 0.1
2017-Oct-13 13:31N 30°04' W 093°22'0 0.1
2017-Oct-13 13:01N 30°04' W 093°22'1 1.7
2017-Oct-13 12:31N 30°04' W 093°23'3 5.3
2017-Oct-13 12:01N 30°04' W 093°26'3 5.2
2017-Oct-13 11:30N 30°04' W 093°29'3 5.0
2017-Oct-13 11:01N 30°04' W 093°32'3 5.2
2017-Oct-13 10:30N 30°04' W 093°35'3 5.7
2017-Oct-13 10:00N 30°04' W 093°38'3 6.6
2017-Oct-13 09:31N 30°03' W 093°42'4 5.5
2017-Oct-13 08:50N 30°01' W 093°45'3 7.1
2017-Oct-13 08:29N 29°59' W 093°47'3 6.7
2017-Oct-13 08:01N 29°58' W 093°51'3 6.8
2017-Oct-13 07:30N 29°55' W 093°53'6 7.7
2017-Oct-13 06:47N 29°51' W 093°57'53 3.8
2017-Oct-12 16:45N 29°30' W 094°52'2 8.3
2017-Oct-12 16:29N 29°32' W 094°54'4 8.1
2017-Oct-12 16:00N 29°35' W 094°56'4 8.3
2017-Oct-12 15:28N 29°39' W 094°58'4 7.9
2017-Oct-12 15:00N 29°42' W 095°01'5 2.1
2017-Oct-12 12:36N 29°46' W 095°05'1 0.4
2017-Oct-12 10:32N 29°46' W 095°06'0 4.0
2017-Oct-12 10:30N 29°46' W 095°05'1 0.8
2017-Oct-12 09:44N 29°46' W 095°05'1 2.9
2017-Oct-12 09:15N 29°46' W 095°07'2 5.2
2017-Oct-12 08:56N 29°46' W 095°05'0 0.5
2017-Oct-12 08:30N 29°46' W 095°05'1 2.7
2017-Oct-12 08:00N 29°46' W 095°06'2 2.6
2017-Oct-12 07:10N 29°47' W 095°04'1 5.2
2017-Oct-12 06:59N 29°46' W 095°05'3 6.2
2017-Oct-12 06:29N 29°44' W 095°02'3 6.4
2017-Oct-12 06:00N 29°42' W 094°60'4 7.4
2017-Oct-12 05:30N 29°38' W 094°58'4 7.1
2017-Oct-12 05:01N 29°35' W 094°56'4 7.3
2017-Oct-12 04:30N 29°32' W 094°54'91 3.2
2017-Oct-11 00:01N 30°04' W 093°16'0 0.0
2017-Oct-10 23:31N 30°04' W 093°16'0 0.0
2017-Oct-10 23:01N 30°04' W 093°16'0 0.0
2017-Oct-10 22:31N 30°04' W 093°16'0 0.0
2017-Oct-10 22:01N 30°04' W 093°16'0 0.0
2017-Oct-10 21:30N 30°04' W 093°16'0 0.0
2017-Oct-10 21:01N 30°04' W 093°16'0 0.0
2017-Oct-10 20:31N 30°04' W 093°16'0 0.0
2017-Oct-10 20:01N 30°04' W 093°16'0 0.0
2017-Oct-10 19:31N 30°04' W 093°16'0 0.0
2017-Oct-10 19:01N 30°04' W 093°16'0 0.0
2017-Oct-10 18:31N 30°04' W 093°16'0 0.0
2017-Oct-10 18:01N 30°04' W 093°16'0 0.0
2017-Oct-10 17:31N 30°04' W 093°16'0 0.0
2017-Oct-10 17:01N 30°04' W 093°16'0 0.0
2017-Oct-10 16:31N 30°04' W 093°16'0 0.0
2017-Oct-10 16:01N 30°04' W 093°16'0 0.0
2017-Oct-10 15:31N 30°04' W 093°16'0 0.0
2017-Oct-10 15:01N 30°04' W 093°16'3 2.6
2017-Oct-10 14:01N 30°01' W 093°14'2 3.4
2017-Oct-10 13:31N 29°60' W 093°13'1 2.3
2017-Oct-10 13:01N 29°59' W 093°12'0 0.7
2017-Oct-10 12:31N 29°59' W 093°12'0 0.8
2017-Oct-10 12:01N 29°59' W 093°12'1 1.8
2017-Oct-10 11:31N 29°58' W 093°11'1 2.0
2017-Oct-10 11:00N 29°57' W 093°10'2 3.5
2017-Oct-10 10:31N 29°56' W 093°09'42 4.2
2017-Oct-10 00:36N 29°51' W 092°21'0 4.3
2017-Oct-10 00:31N 29°51' W 092°21'2 4.4
2017-Oct-10 00:00N 29°50' W 092°18'2 4.3
2017-Oct-09 23:31N 29°49' W 092°17'2 3.6
2017-Oct-09 23:01N 29°48' W 092°15'2 4.5
2017-Oct-09 22:31N 29°47' W 092°12'2 3.1
2017-Oct-09 22:01N 29°47' W 092°11'0 0.0
2017-Oct-09 21:31N 29°47' W 092°11'0 0.0
2017-Oct-09 21:01N 29°47' W 092°11'0 0.0
2017-Oct-09 20:31N 29°47' W 092°11'0 0.1
2017-Oct-09 20:00N 29°47' W 092°11'0 0.0
2017-Oct-09 19:30N 29°47' W 092°11'0 0.1
2017-Oct-09 19:01N 29°47' W 092°11'2 3.9
2017-Oct-09 18:31N 29°47' W 092°09'2 4.9
2017-Oct-09 18:01N 29°48' W 092°06'3 5.0
2017-Oct-09 17:30N 29°49' W 092°03'  
2017-Oct-05 23:50N 29°50' W 091°60'2 3.9
2017-Oct-05 23:20N 29°49' W 092°02'1 3.8
2017-Oct-05 23:00N 29°49' W 092°03'2 4.0
2017-Oct-05 22:30N 29°48' W 092°05'2 4.3
2017-Oct-05 22:00N 29°47' W 092°08'2 4.1
2017-Oct-05 21:30N 29°47' W 092°10'2 3.9
2017-Oct-05 21:00N 29°47' W 092°12'1 1.5
2017-Oct-05 20:30N 29°47' W 092°13'1 1.8
2017-Oct-05 20:00N 29°48' W 092°14'1 1.4
2017-Oct-05 19:30N 29°48' W 092°15'2 3.8
2017-Oct-05 19:00N 29°49' W 092°17'2 3.8
2017-Oct-05 18:30N 29°50' W 092°18'31 3.0
2017-Oct-05 08:08N 29°57' W 092°53'9 3.8
2017-Oct-05 05:52N 29°56' W 093°03'2 3.8
2017-Oct-05 05:24N 29°56' W 093°05'2 3.8
2017-Oct-05 05:00N 29°56' W 093°07'2 3.8
2017-Oct-05 04:30N 29°56' W 093°09'1 2.3
2017-Oct-05 04:00N 29°57' W 093°10'2 3.3
2017-Oct-05 03:30N 29°58' W 093°11'2 3.8
2017-Oct-05 03:00N 29°59' W 093°13'2 3.6
2017-Oct-05 02:30N 30°01' W 093°14'1 2.1
2017-Oct-05 02:00N 30°02' W 093°15'1 1.0
2017-Oct-05 01:30N 30°02' W 093°15'1 3.0
2017-Oct-05 01:00N 30°03' W 093°16'1 2.6
2017-Oct-05 00:30N 30°04' W 093°17'1 2.6
2017-Oct-05 00:00N 30°05' W 093°18'1 2.1
2017-Oct-04 23:30N 30°06' W 093°18'1 2.5
2017-Oct-04 23:00N 30°05' W 093°20'2 3.0
2017-Oct-04 22:29N 30°04' W 093°21'1 2.3
2017-Oct-04 21:59N 30°04' W 093°22'1 2.7
2017-Oct-04 21:30N 30°04' W 093°23'2 3.5
2017-Oct-04 21:00N 30°04' W 093°25'2 3.5
2017-Oct-04 20:29N 30°04' W 093°27'2 3.6
2017-Oct-04 20:00N 30°04' W 093°30'2 3.7
2017-Oct-04 19:30N 30°04' W 093°32'2 3.7
2017-Oct-04 19:00N 30°04' W 093°34'2 3.5
2017-Oct-04 18:28N 30°04' W 093°36'  
Track history (hours):
 
Tides and Currents Weather Stations Pressure Air Temp Water Temp Dewpoint Dewpoint Depression Visibility Wind Speed Wind Dir Waves Ship Positions

Sarah D.

Owner: C & J MARINE SERVICES, INC., BERWICK, LA. More information available from US FCC via Universal Licensing System and Coast Guard Vessel Documentation Center.

Last reported at 2017-Oct-14 16:11 UTC. Time now 2017-Oct-19 08:54 UTC.
Position N 29°50' W 091°60'.

; draft 3 m.

Type: . MMSI: 367045970.

Date/timePositionNaut miles runAvg speedWind from/ knotsBaromVisibWave heightAir tempDewpointWater temp
2017-Oct-14 16:11N 29°50' W 091°60'1 4.4
2017-Oct-14 15:59N 29°50' W 092°01'2 4.3
2017-Oct-14 15:31N 29°49' W 092°03'2 4.2
2017-Oct-14 15:01N 29°48' W 092°05'2 4.2
2017-Oct-14 14:31N 29°47' W 092°07'2 3.6
2017-Oct-14 14:01N 29°47' W 092°09'2 3.9
2017-Oct-14 13:31N 29°47' W 092°11'2 4.4
2017-Oct-14 13:01N 29°48' W 092°14'2 4.6
2017-Oct-14 12:31N 29°49' W 092°16'2 4.0
2017-Oct-14 12:01N 29°50' W 092°18'19 3.7
2017-Oct-14 06:48N 29°56' W 092°39'1 1.9
2017-Oct-14 06:29N 29°56' W 092°40'19 2.5
2017-Oct-13 22:50N 29°56' W 093°02'1 4.1
2017-Oct-13 22:29N 29°56' W 093°03'2 4.0
2017-Oct-13 22:01N 29°56' W 093°06'2 3.3
2017-Oct-13 21:31N 29°56' W 093°07'2 3.9
2017-Oct-13 21:01N 29°56' W 093°10'2 4.0
2017-Oct-13 20:30N 29°58' W 093°11'2 4.0
2017-Oct-13 20:01N 29°59' W 093°13'2 3.8
2017-Oct-13 19:31N 30°01' W 093°14'2 3.5
2017-Oct-13 19:01N 30°02' W 093°15'2 3.8
2017-Oct-13 18:31N 30°04' W 093°16'2 3.6
2017-Oct-13 18:01N 30°05' W 093°17'0 0.5
2017-Oct-13 17:31N 30°05' W 093°18'1 1.7
2017-Oct-13 17:01N 30°06' W 093°18'1 2.6
2017-Oct-13 16:30N 30°05' W 093°20'1 2.6
2017-Oct-13 16:00N 30°04' W 093°21'1 2.6
2017-Oct-13 15:31N 30°04' W 093°22'0 0.8
2017-Oct-13 15:00N 30°04' W 093°21'0 0.7
2017-Oct-13 14:31N 30°04' W 093°22'0 0.1
2017-Oct-13 14:01N 30°04' W 093°22'0 0.1
2017-Oct-13 13:31N 30°04' W 093°22'0 0.1
2017-Oct-13 13:01N 30°04' W 093°22'1 1.7
2017-Oct-13 12:31N 30°04' W 093°23'3 5.3
2017-Oct-13 12:01N 30°04' W 093°26'3 5.2
2017-Oct-13 11:30N 30°04' W 093°29'3 5.0
2017-Oct-13 11:01N 30°04' W 093°32'3 5.2
2017-Oct-13 10:30N 30°04' W 093°35'3 5.7
2017-Oct-13 10:00N 30°04' W 093°38'3 6.6
2017-Oct-13 09:31N 30°03' W 093°42'4 5.5
2017-Oct-13 08:50N 30°01' W 093°45'3 7.1
2017-Oct-13 08:29N 29°59' W 093°47'3 6.7
2017-Oct-13 08:01N 29°58' W 093°51'3 6.8
2017-Oct-13 07:30N 29°55' W 093°53'6 7.7
2017-Oct-13 06:47N 29°51' W 093°57'53 3.8
2017-Oct-12 16:45N 29°30' W 094°52'2 8.3
2017-Oct-12 16:29N 29°32' W 094°54'4 8.1
2017-Oct-12 16:00N 29°35' W 094°56'4 8.3
2017-Oct-12 15:28N 29°39' W 094°58'4 7.9
2017-Oct-12 15:00N 29°42' W 095°01'5 2.1
2017-Oct-12 12:36N 29°46' W 095°05'1 0.4
2017-Oct-12 10:32N 29°46' W 095°06'0 4.0
2017-Oct-12 10:30N 29°46' W 095°05'1 0.8
2017-Oct-12 09:44N 29°46' W 095°05'1 2.9
2017-Oct-12 09:15N 29°46' W 095°07'2 5.2
2017-Oct-12 08:56N 29°46' W 095°05'0 0.5
2017-Oct-12 08:30N 29°46' W 095°05'1 2.7
2017-Oct-12 08:00N 29°46' W 095°06'2 2.6
2017-Oct-12 07:10N 29°47' W 095°04'1 5.2
2017-Oct-12 06:59N 29°46' W 095°05'3 6.2
2017-Oct-12 06:29N 29°44' W 095°02'3 6.4
2017-Oct-12 06:00N 29°42' W 094°60'4 7.4
2017-Oct-12 05:30N 29°38' W 094°58'4 7.1
2017-Oct-12 05:01N 29°35' W 094°56'4 7.3
2017-Oct-12 04:30N 29°32' W 094°54'91 3.2
2017-Oct-11 00:01N 30°04' W 093°16'0 0.0
2017-Oct-10 23:31N 30°04' W 093°16'0 0.0
2017-Oct-10 23:01N 30°04' W 093°16'0 0.0
2017-Oct-10 22:31N 30°04' W 093°16'0 0.0
2017-Oct-10 22:01N 30°04' W 093°16'0 0.0
2017-Oct-10 21:30N 30°04' W 093°16'0 0.0
2017-Oct-10 21:01N 30°04' W 093°16'0 0.0
2017-Oct-10 20:31N 30°04' W 093°16'0 0.0
2017-Oct-10 20:01N 30°04' W 093°16'0 0.0
2017-Oct-10 19:31N 30°04' W 093°16'0 0.0
2017-Oct-10 19:01N 30°04' W 093°16'0 0.0
2017-Oct-10 18:31N 30°04' W 093°16'0 0.0
2017-Oct-10 18:01N 30°04' W 093°16'0 0.0
2017-Oct-10 17:31N 30°04' W 093°16'0 0.0
2017-Oct-10 17:01N 30°04' W 093°16'0 0.0
2017-Oct-10 16:31N 30°04' W 093°16'0 0.0
2017-Oct-10 16:01N 30°04' W 093°16'0 0.0
2017-Oct-10 15:31N 30°04' W 093°16'0 0.0
2017-Oct-10 15:01N 30°04' W 093°16'3 2.6
2017-Oct-10 14:01N 30°01' W 093°14'2 3.4
2017-Oct-10 13:31N 29°60' W 093°13'1 2.3
2017-Oct-10 13:01N 29°59' W 093°12'0 0.7
2017-Oct-10 12:31N 29°59' W 093°12'0 0.8
2017-Oct-10 12:01N 29°59' W 093°12'1 1.8
2017-Oct-10 11:31N 29°58' W 093°11'1 2.0
2017-Oct-10 11:00N 29°57' W 093°10'2 3.5
2017-Oct-10 10:31N 29°56' W 093°09'42 4.2
2017-Oct-10 00:36N 29°51' W 092°21'0 4.3
2017-Oct-10 00:31N 29°51' W 092°21'2 4.4
2017-Oct-10 00:00N 29°50' W 092°18'2 4.3
2017-Oct-09 23:31N 29°49' W 092°17'2 3.6
2017-Oct-09 23:01N 29°48' W 092°15'2 4.5
2017-Oct-09 22:31N 29°47' W 092°12'2 3.1
2017-Oct-09 22:01N 29°47' W 092°11'0 0.0
2017-Oct-09 21:31N 29°47' W 092°11'0 0.0
2017-Oct-09 21:01N 29°47' W 092°11'0 0.0
2017-Oct-09 20:31N 29°47' W 092°11'0 0.1
2017-Oct-09 20:00N 29°47' W 092°11'0 0.0
2017-Oct-09 19:30N 29°47' W 092°11'0 0.1
2017-Oct-09 19:01N 29°47' W 092°11'2 3.9
2017-Oct-09 18:31N 29°47' W 092°09'2 4.9
2017-Oct-09 18:01N 29°48' W 092°06'3 5.0
2017-Oct-09 17:30N 29°49' W 092°03'  
2017-Oct-05 23:50N 29°50' W 091°60'2 3.9
2017-Oct-05 23:20N 29°49' W 092°02'1 3.8
2017-Oct-05 23:00N 29°49' W 092°03'2 4.0
2017-Oct-05 22:30N 29°48' W 092°05'2 4.3
2017-Oct-05 22:00N 29°47' W 092°08'2 4.1
2017-Oct-05 21:30N 29°47' W 092°10'2 3.9
2017-Oct-05 21:00N 29°47' W 092°12'1 1.5
2017-Oct-05 20:30N 29°47' W 092°13'1 1.8
2017-Oct-05 20:00N 29°48' W 092°14'1 1.4
2017-Oct-05 19:30N 29°48' W 092°15'2 3.8
2017-Oct-05 19:00N 29°49' W 092°17'2 3.8
2017-Oct-05 18:30N 29°50' W 092°18'31 3.0
2017-Oct-05 08:08N 29°57' W 092°53'9 3.8
2017-Oct-05 05:52N 29°56' W 093°03'2 3.8
2017-Oct-05 05:24N 29°56' W 093°05'2 3.8
2017-Oct-05 05:00N 29°56' W 093°07'2 3.8
2017-Oct-05 04:30N 29°56' W 093°09'1 2.3
2017-Oct-05 04:00N 29°57' W 093°10'2 3.3
2017-Oct-05 03:30N 29°58' W 093°11'2 3.8
2017-Oct-05 03:00N 29°59' W 093°13'2 3.6
2017-Oct-05 02:30N 30°01' W 093°14'1 2.1
2017-Oct-05 02:00N 30°02' W 093°15'1 1.0
2017-Oct-05 01:30N 30°02' W 093°15'1 3.0
2017-Oct-05 01:00N 30°03' W 093°16'1 2.6
2017-Oct-05 00:30N 30°04' W 093°17'1 2.6
2017-Oct-05 00:00N 30°05' W 093°18'1 2.1
2017-Oct-04 23:30N 30°06' W 093°18'1 2.5
2017-Oct-04 23:00N 30°05' W 093°20'2 3.0
2017-Oct-04 22:29N 30°04' W 093°21'1 2.3
2017-Oct-04 21:59N 30°04' W 093°22'1 2.7
2017-Oct-04 21:30N 30°04' W 093°23'2 3.5
2017-Oct-04 21:00N 30°04' W 093°25'2 3.5
2017-Oct-04 20:29N 30°04' W 093°27'2 3.6
2017-Oct-04 20:00N 30°04' W 093°30'2 3.7
2017-Oct-04 19:30N 30°04' W 093°32'2 3.7
2017-Oct-04 19:00N 30°04' W 093°34'2 3.5
2017-Oct-04 18:28N 30°04' W 093°36'  

Dump ship's entire track history